Main page
METAR-TAF:

METAR-TAF

Airports :

Ouagadougou Airport

Ouagadougou, Burkina Faso

latitude: 12-21N, longitude: 001-31W, elevation: 316 m

Current weather observation

The report was made 51 minutes ago, at 00:00 UTC
Wind 4 kt from the Northeast
Temperature 23°C
Humidity 17%
Pressure 1014 hPa
Visibility 10 km or more
no clouds below 1500 m and no cumulonimbus

METAR: DFFD 160000Z 04004KT CAVOK 23/M03 Q1014 NOSIG

Time: 00:51 (00:51 UTC)

Forecast

The report was made 1 hour and 51 minutes ago, at 23:00 UTC
Forecast valid from 16 at 00 UTC to 17 at 06 UTC
Wind 8 kt from the East/Northeast
Visibility: 8000 m
Temporary
from 16 at 06 UTC to 16 at 10 UTC
Visibility: 4000 m
haze

TAF: DFFD 152300Z 1600/1706 06008KT 8000 NSC TEMPO 1606/1610 4000 HZ

Weather observations and forecasts of more than 4000 airports (METAR and TAF reports).

The available stations are represented by yellow and red dots on the map.

Hover mouse over dot to see the name of the station.

Then click to see weather observations and forecasts.

To change the map : click on the green buttons with a black cross to zoom in, on the green button with a dash to zoom out, or on the green arrows for adjacent maps.


METAR-TAF: